X  Sluiten METAR luchtvaart weer gegevens      LOWW Vienna International Airport
Temperatuur
11°C Temperatuur
10°C Dauwpunt
94% Vochtigheid



Wind
3 KM/U
2 MPH
1 M/S
2 KTS



340°
NNW
Huidig weer

Helder Helder
Luchtdruk 1029.92 (hPa) - 30.41 (inHg)
Zicht 6.2 (mijl) - 10 (km)
Vliegveld
Vliegveld code LOWW

Locatie : Vienna International Airport
Afstand: 69 (km)

Metar:
LOWW 062350Z 34002KT CAVOK 11/10 Q1030 NOSIG

Tijd: 07-10-2022 01:50 CEST